Time;durP1;ratioP1;P1;durP2;ratioP2;P2;SDS_P1;SDS_P2;PMS_P1;PMS_P2;Temp;Humidity;BMP_temperature;BMP_pressure;BME280_temperature;BME280_humidity;BME280_pressure;Samples;Min_cycle;Max_cycle;Signal;HPM_P1;HPM_P2
2021/09/27 00:01:09;;;;;;;22.70;16.45;;;;;;;16.16;96.98;101553.75;5027301;28;20025;-78
2021/09/27 00:03:36;;;;;;;24.70;16.90;;;;;;;16.16;97.48;101550.22;5022811;28;20037;-79
2021/09/27 00:06:22;;;;;;;25.77;17.13;;;;;;;16.17;97.24;101555.53;5020008;28;20029;-78
2021/09/27 00:08:48;;;;;;;27.90;16.75;;;;;;;16.18;97.48;101549.34;5024287;28;20080;-77
2021/09/27 00:11:18;;;;;;;25.17;15.80;;;;;;;16.21;97.14;101542.25;5022079;28;20044;-77
2021/09/27 00:14:05;;;;;;;25.77;16.73;;;;;;;16.17;97.69;101539.59;5025147;28;20091;-78
2021/09/27 00:16:51;;;;;;;27.80;17.70;;;;;;;16.10;97.65;101537.78;5024424;28;20033;-76
2021/09/27 00:19:17;;;;;;;27.25;17.00;;;;;;;16.02;97.76;101537.75;5047428;28;20040;-78
2021/09/27 00:21:43;;;;;;;25.63;17.13;;;;;;;15.93;97.90;101531.50;5022624;28;20049;-79
2021/09/27 00:24:09;;;;;;;26.35;17.00;;;;;;;15.85;98.17;101531.47;5020879;28;20040;-77
2021/09/27 00:26:35;;;;;;;25.70;19.10;;;;;;;15.82;98.44;101534.09;5025862;28;20063;-78
2021/09/27 00:29:00;;;;;;;29.02;18.60;;;;;;;15.77;98.88;101531.38;5019983;28;20507;-78
2021/09/27 00:31:33;;;;;;;29.75;19.33;;;;;;;15.70;99.08;101518.94;5024546;28;20449;-79
2021/09/27 00:33:59;;;;;;;32.53;18.58;;;;;;;15.64;99.56;101519.81;5023014;28;20038;-79
2021/09/27 00:36:24;;;;;;;27.27;16.92;;;;;;;15.58;99.66;101516.22;5026557;28;20414;-77
2021/09/27 00:38:50;;;;;;;28.67;18.80;;;;;;;15.52;99.69;101515.31;5024265;28;20045;-78
2021/09/27 00:41:18;;;;;;;31.00;19.80;;;;;;;15.49;100.00;101512.63;5023311;28;20621;-78
2021/09/27 00:43:45;;;;;;;31.88;19.75;;;;;;;15.41;100.00;101511.69;5020118;28;20051;-77
2021/09/27 00:46:16;;;;;;;28.20;18.65;;;;;;;15.36;99.91;101510.75;5023097;28;20029;-79
2021/09/27 00:48:43;;;;;;;30.52;18.77;;;;;;;15.29;100.00;101517.78;5028200;28;20025;-77
2021/09/27 00:51:21;;;;;;;32.03;20.52;;;;;;;15.26;100.00;101508.91;5022920;28;20061;-77
2021/09/27 00:53:52;;;;;;;34.13;20.88;;;;;;;15.24;100.00;101513.31;5023117;28;20040;-79
2021/09/27 00:56:44;;;;;;;39.47;22.00;;;;;;;15.21;100.00;101514.19;5021917;28;20029;-77
2021/09/27 00:59:14;;;;;;;34.72;21.55;;;;;;;15.18;100.00;101520.34;5021172;28;20025;-78
2021/09/27 01:01:41;;;;;;;40.05;21.30;;;;;;;15.14;100.00;101521.19;5022233;28;20036;-78
2021/09/27 01:04:26;;;;;;;32.45;20.55;;;;;;;15.12;100.00;101514.97;5019785;28;20826;-78
2021/09/27 01:07:48;;;;;;;33.13;20.75;;;;;;;15.08;100.00;101504.34;5022312;28;20053;-77
2021/09/27 01:10:35;;;;;;;38.65;23.15;;;;;;;15.05;100.00;101499.91;5022536;28;20039;-78
2021/09/27 01:13:10;;;;;;;37.15;21.77;;;;;;;15.03;100.00;101509.63;5025021;28;20036;-77
2021/09/27 01:15:47;;;;;;;41.03;23.45;;;;;;;15.01;100.00;101498.09;5022929;28;20051;-76
2021/09/27 01:18:49;;;;;;;33.75;21.33;;;;;;;14.99;100.00;101497.22;5021465;28;20444;-77
2021/09/27 01:21:23;;;;;;;45.47;23.52;;;;;;;14.98;100.00;101492.78;5021757;28;20117;-77
2021/09/27 01:23:48;;;;;;;;;;;;;;;14.98;100.00;101498.97;5021180;28;20029;-77
2021/09/27 01:26:35;;;;;;;40.07;24.03;;;;;;;14.96;100.00;101492.78;5028393;28;19925;-80
2021/09/27 01:29:29;;;;;;;45.40;23.45;;;;;;;14.98;100.00;101500.75;5023322;28;20298;-79
2021/09/27 01:32:27;;;;;;;45.33;23.80;;;;;;;14.95;100.00;101501.59;5023389;28;20028;-80
2021/09/27 01:35:02;;;;;;;33.05;20.67;;;;;;;14.97;100.00;101498.97;5014978;28;20037;-79
2021/09/27 01:37:51;;;;;;;42.20;24.30;;;;;;;14.98;100.00;101500.75;5022855;28;20521;-78
2021/09/27 01:40:38;;;;;;;45.55;27.33;;;;;;;15.01;100.00;101511.34;5024117;28;20131;-77
2021/09/27 01:43:24;;;;;;;50.83;25.80;;;;;;;15.05;100.00;101505.22;5024925;28;20045;-80
2021/09/27 01:45:55;;;;;;;45.03;24.88;;;;;;;15.11;100.00;101509.66;5020647;28;20543;-78
2021/09/27 01:48:28;;;;;;;49.03;23.52;;;;;;;15.12;100.00;101509.69;5023343;28;20033;-79
2021/09/27 01:51:23;;;;;;;40.33;24.00;;;;;;;15.15;100.00;101509.72;5022943;28;20088;-78
2021/09/27 01:53:55;;;;;;;45.47;24.88;;;;;;;15.13;100.00;101495.56;5019820;28;20041;-78
2021/09/27 01:57:05;;;;;;;48.42;26.83;;;;;;;15.15;100.00;101504.44;5021101;28;20460;-78
2021/09/27 01:59:52;;;;;;;46.53;24.30;;;;;;;15.14;100.00;101500.00;5021740;28;20107;-77
2021/09/27 02:02:24;;;;;;;42.47;25.52;;;;;;;15.11;100.00;101499.97;5018171;28;20033;-78
2021/09/27 02:04:56;;;;;;;38.63;24.10;;;;;;;15.11;100.00;101504.38;5020810;28;20082;-77
2021/09/27 02:07:22;;;;;;;50.67;28.23;;;;;;;15.09;100.00;101503.47;5019164;28;20365;-78
2021/09/27 02:09:50;;;;;;;49.45;25.85;;;;;;;15.09;100.00;101509.66;5026900;28;20044;-79
2021/09/27 02:12:30;;;;;;;53.78;29.50;;;;;;;15.12;100.00;101508.81;5025231;28;20034;-77
2021/09/27 02:15:36;;;;;;;52.17;29.05;;;;;;;15.13;100.00;101498.22;5027139;28;20064;-79
2021/09/27 02:18:14;;;;;;;65.15;30.05;;;;;;;15.16;100.00;101494.69;5025634;28;20482;-77
2021/09/27 02:20:46;;;;;;;54.03;27.73;;;;;;;15.16;100.00;101500.88;5027955;28;20018;-79
2021/09/27 02:23:24;;;;;;;56.28;27.67;;;;;;;15.20;100.00;101500.94;5025812;28;20088;-77
2021/09/27 02:25:50;;;;;;;54.33;28.63;;;;;;;15.21;100.00;101492.97;5025987;28;20034;-79
2021/09/27 02:28:18;;;;;;;62.17;31.92;;;;;;;15.22;100.00;101488.56;5025187;28;20407;-78
2021/09/27 02:31:16;;;;;;;54.67;29.15;;;;;;;15.20;100.00;101491.19;5029816;28;20041;-78
2021/09/27 02:33:51;;;;;;;57.15;29.92;;;;;;;15.16;100.00;101484.97;5027923;28;20040;-79
2021/09/27 02:36:26;;;;;;;52.60;28.55;;;;;;;15.14;100.00;101485.88;5024364;28;20052;-77
2021/09/27 02:39:00;;;;;;;53.72;29.42;;;;;;;15.05;100.00;101481.34;5025418;28;20099;-80
2021/09/27 02:41:34;;;;;;;;;;;;;;;15.02;100.00;101486.63;5026350;28;20147;-77
2021/09/27 02:43:59;;;;;;;58.47;29.33;;;;;;;14.95;100.00;101485.69;5028002;28;19913;-79
2021/09/27 02:46:29;;;;;;;60.03;30.08;;;;;;;14.90;100.00;101489.19;5023752;28;20018;-79
2021/09/27 02:49:16;;;;;;;62.42;30.27;;;;;;;14.90;100.00;101481.22;5025523;28;20492;-78
2021/09/27 02:51:46;;;;;;;73.05;33.13;;;;;;;14.91;100.00;101477.72;5023259;28;20036;-78
2021/09/27 02:54:19;;;;;;;62.75;31.70;;;;;;;14.89;100.00;101479.44;5024840;28;20060;-79
2021/09/27 02:57:02;;;;;;;63.60;30.80;;;;;;;14.89;100.00;101474.16;5029018;28;20071;-77
2021/09/27 02:59:34;;;;;;;;;;;;;;;14.87;100.00;101476.78;5025231;28;20140;-77
2021/09/27 03:02:06;;;;;;;76.20;34.95;;;;;;;14.88;100.00;101473.28;5025819;28;19917;-77
2021/09/27 03:05:03;;;;;;;72.72;33.28;;;;;;;14.89;100.00;101471.50;5021876;28;20794;-78
2021/09/27 03:08:03;;;;;;;77.05;36.05;;;;;;;14.91;100.00;101467.13;5024125;28;20041;-80
2021/09/27 03:10:59;;;;;;;75.28;34.30;;;;;;;14.90;100.00;101462.69;5026093;28;20044;-78
2021/09/27 03:14:05;;;;;;;72.57;34.78;;;;;;;14.89;100.00;101460.91;5022930;28;20038;-78
2021/09/27 03:16:48;;;;;;;68.55;33.22;;;;;;;14.81;100.00;101459.09;5003424;28;20033;-79
2021/09/27 03:19:50;;;;;;;66.70;31.65;;;;;;;14.80;100.00;101461.72;5022974;28;20045;-79
2021/09/27 03:22:32;;;;;;;78.45;35.63;;;;;;;14.79;100.00;101468.75;5022931;28;20050;-79
2021/09/27 03:25:25;;;;;;;69.35;33.05;;;;;;;14.79;100.00;101471.41;5024794;28;20036;-79
2021/09/27 03:28:34;;;;;;;69.65;35.17;;;;;;;14.82;100.00;101474.09;5023619;28;20083;-78
2021/09/27 03:31:43;;;;;;;81.40;36.75;;;;;;;14.78;100.00;101456.38;5025009;28;20057;-78
2021/09/27 03:34:30;;;;;;;72.35;36.75;;;;;;;14.73;100.00;101458.13;5017631;28;20049;-78
2021/09/27 03:37:01;;;;;;;73.78;35.17;;;;;;;14.70;100.00;101454.56;5023972;28;20041;-78
2021/09/27 03:39:50;;;;;;;85.78;37.55;;;;;;;14.67;100.00;101452.75;5024987;28;20105;-78
2021/09/27 03:42:23;;;;;;;79.57;34.67;;;;;;;14.65;100.00;101451.88;5024817;28;20029;-79
2021/09/27 03:44:54;;;;;;;86.73;37.73;;;;;;;14.63;100.00;101450.97;5027108;28;20108;-79
2021/09/27 03:47:33;;;;;;;79.22;38.25;;;;;;;14.66;100.00;101450.97;5027121;28;20022;-79
2021/09/27 03:50:26;;;;;;;85.85;37.90;;;;;;;14.65;100.00;101444.81;5021735;28;20479;-79
2021/09/27 03:52:58;;;;;;;73.05;36.72;;;;;;;14.65;100.00;101444.81;5022464;28;20028;-79
2021/09/27 03:56:21;;;;;;;71.65;33.70;;;;;;;14.63;100.00;101448.31;5025108;28;20361;-77
2021/09/27 03:59:07;;;;;;;83.43;37.45;;;;;;;14.61;100.00;101453.56;5023701;28;20551;-79
2021/09/27 04:01:51;;;;;;;76.95;36.35;;;;;;;14.62;100.00;101454.44;5023761;28;20029;-77
2021/09/27 04:04:56;;;;;;;77.68;36.50;;;;;;;14.60;100.00;101458.84;5019698;28;20037;-80
2021/09/27 04:07:29;;;;;;;76.25;36.78;;;;;;;14.55;100.00;101453.50;5032773;28;20047;-78
2021/09/27 04:10:03;;;;;;;89.30;39.00;;;;;;;14.56;100.00;101449.09;5030592;28;20174;-78
2021/09/27 04:12:34;;;;;;;77.82;37.78;;;;;;;14.53;100.00;101443.75;5035590;28;20037;-80
2021/09/27 04:15:50;;;;;;;79.53;35.75;;;;;;;14.53;100.00;101443.75;5024404;28;20029;-79
2021/09/27 04:18:37;;;;;;;90.22;39.75;;;;;;;14.49;100.00;101433.13;5013475;28;20034;-78
2021/09/27 04:21:27;;;;;;;89.80;42.17;;;;;;;14.49;100.00;101441.06;5022613;28;20541;-78
2021/09/27 04:24:13;;;;;;;93.82;41.33;;;;;;;14.50;100.00;101428.72;5025526;28;20025;-78
2021/09/27 04:27:01;;;;;;;92.55;41.90;;;;;;;14.50;100.00;101429.63;5024544;28;20487;-77
2021/09/27 04:29:57;;;;;;;91.38;40.70;;;;;;;14.48;100.00;101427.81;5024164;28;20026;-78
2021/09/27 04:32:50;;;;;;;93.00;40.38;;;;;;;14.46;100.00;101422.53;5021813;28;20050;-77
2021/09/27 04:35:32;;;;;;;89.95;41.25;;;;;;;14.44;100.00;101424.25;5022322;28;20056;-79
2021/09/27 04:38:01;;;;;;;96.25;41.25;;;;;;;14.44;100.00;101421.59;5024426;28;20496;-79
2021/09/27 04:40:57;;;;;;;89.03;41.28;;;;;;;14.42;100.00;101425.09;5023067;28;20163;-77
2021/09/27 04:43:35;;;;;;;92.63;40.45;;;;;;;14.41;100.00;101421.59;5020216;28;20038;-76
2021/09/27 04:46:51;;;;;;;88.72;39.85;;;;;;;14.39;100.00;101426.00;5026186;28;20025;-78
2021/09/27 04:49:22;;;;;;;98.05;42.15;;;;;;;14.41;100.00;101423.34;5053678;28;20037;-78
2021/09/27 04:52:04;;;;;;;103.10;42.67;;;;;;;14.42;100.00;101426.00;5024754;28;20048;-78
2021/09/27 04:54:52;;;;;;;100.10;43.38;;;;;;;14.42;100.00;101425.09;5023273;28;20091;-78
2021/09/27 04:58:02;;;;;;;101.30;44.08;;;;;;;14.40;100.00;101422.44;5018431;28;20032;-80
2021/09/27 05:00:48;;;;;;;91.88;40.60;;;;;;;14.42;100.00;101425.09;5025124;28;20041;-78
2021/09/27 05:03:20;;;;;;;103.90;43.58;;;;;;;14.42;100.00;101426.00;5021299;28;20028;-79
2021/09/27 05:05:45;;;;;;;97.78;42.50;;;;;;;14.45;100.00;101420.75;5024442;28;20053;-76
2021/09/27 05:08:16;;;;;;;98.30;42.50;;;;;;;14.47;100.00;101403.13;5020319;28;20076;-77
2021/09/27 05:11:09;;;;;;;92.35;42.22;;;;;;;14.48;100.00;101399.56;5022275;28;20025;-78
2021/09/27 05:13:49;;;;;;;106.35;42.90;;;;;;;14.50;100.00;101392.53;5019861;28;20028;-78
2021/09/27 05:16:48;;;;;;;101.53;41.35;;;;;;;14.53;100.00;101391.69;5021277;28;20120;-78
2021/09/27 05:19:30;;;;;;;99.13;43.17;;;;;;;14.54;100.00;101397.84;5019480;28;20132;-78
2021/09/27 05:22:47;;;;;;;104.88;43.47;;;;;;;14.53;100.00;101396.06;5021272;28;20110;-77
2021/09/27 05:25:41;;;;;;;98.28;42.58;;;;;;;14.54;100.00;101385.53;5020762;28;20070;-77
2021/09/27 05:28:48;;;;;;;104.43;44.92;;;;;;;14.57;100.00;101392.59;5018958;28;20033;-79
2021/09/27 05:31:48;;;;;;;102.03;43.95;;;;;;;14.56;100.00;101380.25;5007920;28;20030;-79
2021/09/27 05:34:32;;;;;;;101.47;43.72;;;;;;;14.57;100.00;101387.28;5021399;28;20507;-77
2021/09/27 05:37:44;;;;;;;106.07;43.47;;;;;;;14.60;100.00;101374.09;5021716;28;20029;-80
2021/09/27 05:40:45;;;;;;;87.40;40.30;;;;;;;14.60;100.00;101366.16;5015303;28;20108;-79
2021/09/27 05:43:51;;;;;;;98.72;42.40;;;;;;;14.60;100.00;101366.16;5016803;28;20048;-76
2021/09/27 05:46:41;;;;;;;92.95;42.53;;;;;;;14.60;100.00;101356.44;5026973;28;20029;-76
2021/09/27 05:49:34;;;;;;;90.20;40.60;;;;;;;14.64;100.00;101362.69;5024157;28;20033;-77
2021/09/27 05:52:11;;;;;;;92.20;39.85;;;;;;;14.65;100.00;101365.34;5015634;28;20041;-76
2021/09/27 05:55:02;;;;;;;86.43;40.40;;;;;;;14.68;100.00;101372.44;5029210;28;20025;-79
2021/09/27 05:57:39;;;;;;;83.97;38.95;;;;;;;14.70;100.00;101370.66;5025436;28;20044;-76
2021/09/27 06:00:44;;;;;;;75.35;36.33;;;;;;;14.75;100.00;101368.94;5028582;28;20079;-77
2021/09/27 06:03:15;;;;;;;82.35;39.25;;;;;;;14.79;100.00;101370.75;5016516;28;20048;-77
2021/09/27 06:06:21;;;;;;;80.75;38.03;;;;;;;14.87;100.00;101365.50;5026889;28;20080;-79
2021/09/27 06:09:22;;;;;;;69.68;33.72;;;;;;;14.96;100.00;101360.28;5027647;28;20029;-78
2021/09/27 06:12:03;;;;;;;62.45;32.28;;;;;;;15.10;100.00;101362.13;5027439;28;20461;-81
2021/09/27 06:14:30;;;;;;;54.95;30.52;;;;;;;15.22;100.00;101361.28;5025106;28;20162;-78
2021/09/27 06:17:02;;;;;;;49.33;28.20;;;;;;;15.30;100.00;101356.91;5027290;28;20017;-79
2021/09/27 06:19:45;;;;;;;45.45;27.05;;;;;;;15.38;100.00;101365.78;5027219;28;20687;-81
2021/09/27 06:22:47;;;;;;;44.88;26.20;;;;;;;15.45;100.00;101359.66;5027863;28;20060;-80
2021/09/27 06:25:59;;;;;;;44.63;25.08;;;;;;;15.47;100.00;101355.25;5027535;28;20050;-79
2021/09/27 06:28:37;;;;;;;44.47;25.23;;;;;;;15.46;100.00;101356.13;5018287;28;20067;-79
2021/09/27 06:31:28;;;;;;;45.42;24.05;;;;;;;15.54;100.00;101360.59;5015078;28;20025;-79
2021/09/27 06:34:38;;;;;;;42.80;24.55;;;;;;;15.61;100.00;101359.72;5029434;28;20404;-81
2021/09/27 06:37:04;;;;;;;44.40;25.08;;;;;;;15.63;100.00;101350.00;5028981;28;20435;-78
2021/09/27 06:39:51;;;;;;;35.85;23.98;;;;;;;15.65;100.00;101333.22;5032287;28;20026;-79
2021/09/27 06:42:17;;;;;;;39.42;23.73;;;;;;;15.68;100.00;101334.97;5030209;28;20037;-78
2021/09/27 06:44:45;;;;;;;38.05;23.33;;;;;;;15.66;100.00;101323.50;5031973;28;20075;-76
2021/09/27 06:47:30;;;;;;;38.75;23.20;;;;;;;15.71;100.00;101315.53;5021618;28;20429;-77
2021/09/27 06:49:55;;;;;;;36.20;21.55;;;;;;;15.74;100.00;101318.22;5024811;28;20033;-78
2021/09/27 06:52:21;;;;;;;31.52;21.40;;;;;;;15.74;100.00;101319.09;5029081;28;20025;-78
2021/09/27 06:54:46;;;;;;;33.83;20.30;;;;;;;15.76;100.00;101312.03;5025175;28;20021;-77
2021/09/27 06:57:12;;;;;;;34.55;20.95;;;;;;;15.79;100.00;101309.38;5019253;28;20029;-76
2021/09/27 06:59:38;;;;;;;31.17;19.90;;;;;;;15.84;100.00;101312.97;5016033;28;20771;-77
2021/09/27 07:02:12;;;;;;;29.92;19.73;;;;;;;15.90;100.00;101308.53;5022570;28;20048;-76
2021/09/27 07:04:38;;;;;;;31.63;20.63;;;;;;;15.91;100.00;101310.31;5018524;28;20061;-75
2021/09/27 07:07:03;;;;;;;30.50;19.98;;;;;;;15.95;100.00;101307.69;5024226;28;20148;-77
2021/09/27 07:09:29;;;;;;;31.98;20.05;;;;;;;16.00;100.00;101299.72;5026671;28;20064;-76
2021/09/27 07:11:54;;;;;;;29.10;18.45;;;;;;;16.01;100.00;101304.16;5027091;28;20037;-76
2021/09/27 07:14:20;;;;;;;29.30;19.75;;;;;;;16.10;100.00;101305.91;5025472;28;20048;-76
2021/09/27 07:16:45;;;;;;;26.95;17.92;;;;;;;16.19;100.00;101308.59;5022681;28;20037;-77
2021/09/27 07:19:11;;;;;;;26.92;17.75;;;;;;;16.28;99.57;101302.41;5026216;28;20035;-76
2021/09/27 07:21:39;;;;;;;25.40;17.60;;;;;;;16.40;99.75;101310.38;5025557;28;20034;-77
2021/09/27 07:24:05;;;;;;;25.15;15.82;;;;;;;16.49;98.90;101315.69;5020035;28;20048;-76
2021/09/27 07:26:32;;;;;;;20.48;15.15;;;;;;;16.57;98.57;101306.81;5026174;28;20021;-76
2021/09/27 07:28:59;;;;;;;22.50;16.10;;;;;;;16.64;98.16;101313.88;5023770;28;20033;-78
2021/09/27 07:31:27;;;;;;;23.92;16.20;;;;;;;16.67;97.39;101327.16;5025815;28;20088;-77
2021/09/27 07:33:53;;;;;;;25.75;16.00;;;;;;;16.72;97.46;101325.41;5025338;28;20038;-77
2021/09/27 07:36:19;;;;;;;27.80;16.67;;;;;;;16.74;97.34;101326.28;5023394;28;20099;-78
2021/09/27 07:38:44;;;;;;;27.13;18.17;;;;;;;16.78;96.87;101322.75;5025176;28;20027;-77
2021/09/27 07:41:10;;;;;;;24.70;17.13;;;;;;;16.86;97.02;101304.09;5026002;28;20036;-79
2021/09/27 07:43:36;;;;;;;24.13;18.33;;;;;;;16.96;96.58;101310.34;5023400;28;20076;-80
2021/09/27 07:46:02;;;;;;;26.48;19.02;;;;;;;16.96;96.56;101315.66;5019923;28;20098;-76
2021/09/27 07:48:28;;;;;;;25.73;19.42;;;;;;;16.96;96.25;101315.66;5026254;28;20375;-77
2021/09/27 07:50:54;;;;;;;26.02;19.75;;;;;;;16.92;96.50;101305.91;5025829;28;20021;-76
2021/09/27 07:53:43;;;;;;;28.08;20.70;;;;;;;16.88;96.45;101302.34;5023544;28;21110;-78
2021/09/27 07:56:09;;;;;;;26.27;20.58;;;;;;;16.88;96.67;101297.03;5023269;28;20045;-78
2021/09/27 07:58:34;;;;;;;34.65;21.83;;;;;;;16.89;96.48;101292.56;5027016;28;20033;-78
2021/09/27 08:01:00;;;;;;;30.48;21.27;;;;;;;16.93;96.84;101283.75;5016239;28;20021;-77
2021/09/27 08:03:25;;;;;;;30.58;21.65;;;;;;;16.98;96.64;101285.53;5020876;28;20021;-78
2021/09/27 08:05:50;;;;;;;34.03;22.02;;;;;;;17.00;96.37;101290.84;5020347;28;20033;-77
2021/09/27 08:08:17;;;;;;;32.03;22.38;;;;;;;17.00;96.19;101296.16;5020353;28;20459;-77
2021/09/27 08:10:43;;;;;;;33.47;23.52;;;;;;;16.98;96.58;101297.91;5018461;28;20033;-77
2021/09/27 08:13:09;;;;;;;36.05;23.45;;;;;;;16.96;96.74;101302.38;5018233;28;20037;-77
2021/09/27 08:15:42;;;;;;;42.00;25.33;;;;;;;16.98;97.01;101292.59;5018068;28;20200;-77
2021/09/27 08:18:28;;;;;;;38.67;27.23;;;;;;;16.99;96.94;101289.06;5017966;28;20499;-78
2021/09/27 08:20:59;;;;;;;43.22;30.08;;;;;;;17.02;96.59;101286.38;5012822;28;20187;-78
2021/09/27 08:23:45;;;;;;;43.55;27.70;;;;;;;17.12;96.66;101274.84;5020152;28;20037;-77
2021/09/27 08:26:30;;;;;;;37.88;27.85;;;;;;;17.31;95.96;101272.13;5018690;28;20022;-78
2021/09/27 08:28:55;;;;;;;37.03;26.35;;;;;;;17.46;95.21;101269.38;5019938;28;20037;-78
2021/09/27 08:31:22;;;;;;;36.55;25.25;;;;;;;17.62;93.86;101256.88;5018628;28;20628;-78
2021/09/27 08:34:00;;;;;;;39.13;25.05;;;;;;;17.76;93.57;101255.91;5021341;28;20470;-77
2021/09/27 08:36:27;;;;;;;29.88;23.17;;;;;;;17.94;92.59;101249.59;5021528;28;20033;-79
2021/09/27 08:38:53;;;;;;;33.67;24.13;;;;;;;18.07;91.88;101232.63;5020987;28;20072;-77
2021/09/27 08:41:54;;;;;;;30.67;21.65;;;;;;;18.03;91.00;101228.22;5023161;28;20124;-76
2021/09/27 08:44:22;;;;;;;28.13;22.17;;;;;;;18.04;91.52;101251.25;5015506;28;20049;-78
2021/09/27 08:47:04;;;;;;;25.90;20.13;;;;;;;18.16;90.45;101243.19;5020185;28;20112;-78
2021/09/27 08:49:41;;;;;;;31.13;22.83;;;;;;;18.18;90.06;101230.72;5022261;28;20025;-78
2021/09/27 08:52:30;;;;;;;30.58;20.73;;;;;;;18.24;89.79;101237.78;5025273;28;20033;-79
2021/09/27 08:54:56;;;;;;;26.85;19.33;;;;;;;18.26;89.64;101230.69;5022508;28;20026;-76
2021/09/27 08:57:59;;;;;;;28.85;19.15;;;;;;;18.39;88.90;101222.56;5021117;28;20052;-77
2021/09/27 09:00:40;;;;;;;22.40;17.05;;;;;;;18.49;88.58;101227.78;5025449;28;20071;-78
2021/09/27 09:03:13;;;;;;;24.08;17.38;;;;;;;18.52;87.50;101221.53;5016343;28;20057;-78
2021/09/27 09:05:41;;;;;;;18.70;15.60;;;;;;;18.52;87.40;101221.53;5020957;28;20033;-78
2021/09/27 09:08:18;;;;;;;23.33;15.88;;;;;;;18.55;87.26;101216.19;5015157;28;20155;-78
2021/09/27 09:10:51;;;;;;;19.35;15.30;;;;;;;18.46;87.08;101222.50;5022037;28;20026;-79
2021/09/27 09:13:41;;;;;;;16.98;12.50;;;;;;;18.31;86.62;101211.97;5020745;28;20044;-79
2021/09/27 09:16:09;;;;;;;15.05;11.32;;;;;;;18.30;86.63;101208.44;5017111;28;20442;-78
2021/09/27 09:18:46;;;;;;;13.95;11.10;;;;;;;18.33;86.38;101210.19;5027683;28;20029;-77
2021/09/27 09:21:27;;;;;;;16.05;10.48;;;;;;;18.34;86.31;101215.50;5030133;28;20098;-78
2021/09/27 09:24:00;;;;;;;15.70;10.52;;;;;;;18.33;86.00;101207.53;5023637;28;20044;-78
2021/09/27 09:26:45;;;;;;;23.80;10.50;;;;;;;18.40;85.96;101211.00;5021095;28;20021;-78
2021/09/27 09:29:31;;;;;;;18.02;10.18;;;;;;;18.40;86.14;101201.22;5022521;28;21765;-77
2021/09/27 09:32:04;;;;;;;19.23;10.75;;;;;;;18.57;85.43;101200.16;5025662;28;20047;-78
2021/09/27 09:34:52;;;;;;;16.65;10.10;;;;;;;18.67;84.94;101201.84;5029674;28;20103;-78
2021/09/27 09:37:55;;;;;;;18.42;9.85;;;;;;;18.83;84.19;101194.56;5027633;28;20021;-78
2021/09/27 09:40:56;;;;;;;12.32;8.90;;;;;;;18.97;83.44;101197.06;5026124;28;20100;-78
2021/09/27 09:43:46;;;;;;;14.68;9.45;;;;;;;19.02;84.20;101205.91;5027307;28;20075;-80
2021/09/27 09:46:27;;;;;;;17.08;9.68;;;;;;;18.97;83.63;101197.06;5027011;28;20030;-78
2021/09/27 09:49:09;;;;;;;20.55;9.88;;;;;;;19.07;83.24;101195.16;5027759;28;20128;-78
2021/09/27 09:51:40;;;;;;;18.08;8.95;;;;;;;19.01;82.38;101193.47;5031023;28;20458;-80
2021/09/27 09:54:38;;;;;;;12.98;8.13;;;;;;;19.02;83.35;101187.22;5030343;28;20037;-79
2021/09/27 09:57:23;;;;;;;11.75;8.48;;;;;;;19.00;83.50;101183.69;5027842;28;20033;-77
2021/09/27 10:00:29;;;;;;;14.75;9.55;;;;;;;18.93;83.76;101195.34;5029953;28;20037;-77
2021/09/27 10:02:55;;;;;;;14.80;8.90;;;;;;;18.95;83.55;101182.84;5019811;28;20391;-80
2021/09/27 10:05:35;;;;;;;13.82;8.27;;;;;;;19.01;82.80;101177.47;5026654;28;20444;-80
2021/09/27 10:08:06;;;;;;;12.23;8.40;;;;;;;19.03;83.28;101187.22;5024691;28;20038;-76
2021/09/27 10:10:33;;;;;;;20.17;8.75;;;;;;;19.00;82.89;101192.59;5031408;28;20048;-80
2021/09/27 10:13:06;;;;;;;12.10;7.85;;;;;;;19.09;82.40;101190.69;5027971;28;20056;-78
2021/09/27 10:15:34;;;;;;;13.83;6.73;;;;;;;19.32;81.44;101193.06;5025978;28;20060;-78
2021/09/27 10:18:29;;;;;;;8.02;6.53;;;;;;;19.55;80.79;101201.59;5030431;28;20053;-78
2021/09/27 10:21:03;;;;;;;12.73;6.55;;;;;;;19.75;79.80;101186.16;5027502;28;20060;-77
2021/09/27 10:23:50;;;;;;;8.82;6.75;;;;;;;19.93;78.63;101182.38;5026773;28;20044;-79
2021/09/27 10:26:24;;;;;;;9.88;5.28;;;;;;;19.91;78.18;101181.50;5027885;28;20111;-79
2021/09/27 10:29:11;;;;;;;6.78;4.78;;;;;;;19.98;76.63;101168.03;5029728;28;20026;-78
2021/09/27 10:31:39;;;;;;;7.95;4.85;;;;;;;20.03;77.20;101154.56;5027726;28;20030;-78
2021/09/27 10:34:28;;;;;;;8.23;4.90;;;;;;;20.12;75.95;101149.06;5029579;28;20472;-77
2021/09/27 10:37:19;;;;;;;12.82;4.57;;;;;;;20.11;75.03;101159.78;5025211;28;20037;-77
2021/09/27 10:40:07;;;;;;;13.35;3.85;;;;;;;20.15;74.23;101149.00;5031273;28;20034;-80
2021/09/27 10:42:53;;;;;;;7.07;3.42;;;;;;;20.41;74.06;101149.44;5029750;28;20037;-77
2021/09/27 10:45:40;;;;;;;5.25;2.88;;;;;;;20.52;72.43;101140.28;5024001;28;20044;-79
2021/09/27 10:48:07;;;;;;;6.18;2.97;;;;;;;20.72;70.74;101145.25;5032676;28;20060;-80
2021/09/27 10:50:56;;;;;;;9.43;3.33;;;;;;;21.76;67.58;101139.34;5031460;28;20048;-78
2021/09/27 10:54:00;;;;;;;6.50;3.30;;;;;;;23.12;62.69;101114.97;5029032;28;20100;-78
2021/09/27 10:56:41;;;;;;;8.65;2.88;;;;;;;24.02;59.37;101117.44;5028735;28;20033;-79
2021/09/27 10:59:18;;;;;;;5.97;2.60;;;;;;;23.60;60.55;101115.28;5025070;28;20107;-77
2021/09/27 11:02:35;;;;;;;5.57;2.65;;;;;;;23.21;61.28;101114.72;5005658;28;20147;-78
2021/09/27 11:05:22;;;;;;;10.07;3.00;;;;;;;22.84;62.77;101121.22;5023484;28;20487;-78
2021/09/27 11:07:53;;;;;;;10.38;3.08;;;;;;;22.69;64.43;101108.25;5029457;28;20652;-78
2021/09/27 11:11:00;;;;;;;5.97;3.10;;;;;;;22.47;63.91;101116.06;5030400;28;20043;-80
2021/09/27 11:13:31;;;;;;;11.00;3.35;;;;;;;22.33;64.71;101108.38;5028456;28;20036;-77
2021/09/27 11:15:59;;;;;;;5.05;2.97;;;;;;;22.51;62.43;101102.50;5029064;28;20036;-77
2021/09/27 11:18:31;;;;;;;7.80;2.80;;;;;;;22.58;62.90;101115.75;5059065;28;20091;-79
2021/09/27 11:21:20;;;;;;;5.50;2.70;;;;;;;22.62;63.17;101104.00;5030278;28;20048;-78
2021/09/27 11:24:07;;;;;;;4.82;2.30;;;;;;;22.52;62.47;101109.63;5030755;28;20037;-77
2021/09/27 11:26:36;;;;;;;10.30;3.90;;;;;;;22.65;63.03;101118.16;5030023;28;20116;-79
2021/09/27 11:29:13;;;;;;;5.03;2.70;;;;;;;22.44;63.87;101111.66;5032178;28;20119;-80
2021/09/27 11:32:00;;;;;;;6.30;2.85;;;;;;;22.10;64.91;101125.97;5028100;28;20021;-79
2021/09/27 11:34:43;;;;;;;9.68;3.20;;;;;;;21.79;65.64;101124.09;5029223;28;20034;-78
2021/09/27 11:37:43;;;;;;;9.85;2.92;;;;;;;21.57;66.20;101118.41;5027276;28;20033;-79
2021/09/27 11:40:11;;;;;;;8.85;2.92;;;;;;;21.29;67.50;101127.06;5028753;28;20091;-80
2021/09/27 11:42:42;;;;;;;8.88;2.92;;;;;;;20.99;70.46;101126.84;5026760;28;20038;-78
2021/09/27 11:45:26;;;;;;;9.48;3.20;;;;;;;20.27;74.68;101158.59;5030321;28;20068;-77
2021/09/27 11:48:04;;;;;;;6.45;3.13;;;;;;;19.77;77.96;101158.53;5025941;28;20037;-78
2021/09/27 11:50:30;;;;;;;10.75;2.97;;;;;;;19.42;79.58;101165.31;5025415;28;20124;-77
2021/09/27 11:53:41;;;;;;;6.00;3.35;;;;;;;19.02;82.77;101176.56;5029442;28;20079;-78
2021/09/27 11:56:26;;;;;;;7.35;3.17;;;;;;;19.03;81.40;101162.31;5026042;28;20033;-76
2021/09/27 11:59:14;;;;;;;10.93;3.25;;;;;;;18.82;83.89;101164.31;5018829;28;20055;-79
2021/09/27 12:01:54;;;;;;;6.82;3.58;;;;;;;18.65;84.90;101164.53;5025610;28;20061;-80
2021/09/27 12:04:59;;;;;;;10.88;3.80;;;;;;;18.50;86.47;101170.03;5016886;28;20029;-78
2021/09/27 12:07:36;;;;;;;6.00;3.30;;;;;;;18.43;86.45;101163.88;5026241;28;20037;-77
2021/09/27 12:10:05;;;;;;;7.13;3.90;;;;;;;18.33;85.62;101152.44;5022634;28;20034;-78